createdAt,value
2023-02-28T00:01:32.379Z,5.05
2023-02-28T00:03:59.477Z,5.31
2023-02-28T00:06:26.945Z,5.40
2023-02-28T00:08:53.601Z,5.37
2023-02-28T00:11:20.128Z,5.34
2023-02-28T00:13:48.405Z,5.31
2023-02-28T00:16:18.411Z,5.22
2023-02-28T00:18:45.502Z,5.26
2023-02-28T00:21:12.033Z,5.09
2023-02-28T00:23:38.691Z,5.20
2023-02-28T00:26:05.346Z,5.22
2023-02-28T00:28:32.415Z,5.21
2023-02-28T00:31:01.011Z,4.51
2023-02-28T00:33:28.666Z,5.12
2023-02-28T00:36:04.899Z,5.21
2023-02-28T00:38:31.658Z,5.16
2023-02-28T00:40:59.446Z,4.75
2023-02-28T00:43:25.971Z,4.94
2023-02-28T00:45:52.588Z,5.00
2023-02-28T00:48:19.113Z,5.04
2023-02-28T00:50:45.658Z,4.94
2023-02-28T00:53:12.198Z,5.16
2023-02-28T00:55:38.728Z,5.16
2023-02-28T00:58:05.283Z,5.00
2023-02-28T01:00:31.947Z,4.90
2023-02-28T01:02:58.620Z,4.90
2023-02-28T01:05:25.167Z,4.76
2023-02-28T01:07:51.739Z,4.63
2023-02-28T01:10:18.391Z,4.98
2023-02-28T01:12:44.921Z,4.80
2023-02-28T01:15:12.415Z,4.24
2023-02-28T01:17:38.983Z,4.60
2023-02-28T01:20:07.048Z,4.87
2023-02-28T01:22:35.903Z,4.78
2023-02-28T01:25:02.506Z,4.90
2023-02-28T01:27:31.825Z,4.86
2023-02-28T01:29:58.664Z,4.49
2023-02-28T01:32:25.405Z,4.70
2023-02-28T01:34:51.992Z,4.54
2023-02-28T01:37:18.600Z,4.81
2023-02-28T01:39:45.152Z,4.68
2023-02-28T01:42:11.957Z,4.50
2023-02-28T01:45:03.542Z,4.86
2023-02-28T01:47:43.006Z,4.80
2023-02-28T01:50:15.903Z,4.80
2023-02-28T01:52:44.008Z,4.63
2023-02-28T01:55:13.514Z,4.74
2023-02-28T01:57:46.749Z,4.61
2023-02-28T02:00:18.077Z,4.81
2023-02-28T02:02:51.226Z,4.69
2023-02-28T02:05:19.763Z,4.59
2023-02-28T02:07:49.523Z,4.59
2023-02-28T02:10:22.791Z,4.38
2023-02-28T02:13:10.583Z,4.52
2023-02-28T02:15:37.089Z,4.65
2023-02-28T02:18:29.718Z,4.31
2023-02-28T02:21:35.646Z,4.58
2023-02-28T02:24:28.739Z,4.68
2023-02-28T02:27:10.549Z,4.56
2023-02-28T02:29:39.996Z,4.69
2023-02-28T02:32:24.804Z,3.95
2023-02-28T02:35:12.711Z,4.46
2023-02-28T02:38:11.638Z,4.53
2023-02-28T02:40:51.097Z,4.55
2023-02-28T02:43:23.773Z,4.62
2023-02-28T02:45:55.879Z,4.62
2023-02-28T02:48:27.842Z,4.49
2023-02-28T02:51:01.755Z,4.66
2023-02-28T02:53:41.735Z,4.38
2023-02-28T02:56:09.473Z,4.37
2023-02-28T02:58:43.061Z,4.43
2023-02-28T03:01:17.017Z,4.54
2023-02-28T03:03:45.956Z,4.21
2023-02-28T03:06:13.186Z,4.41
2023-02-28T03:08:39.735Z,4.18
2023-02-28T03:11:15.782Z,3.85
2023-02-28T03:13:58.400Z,4.20
2023-02-28T03:16:31.840Z,4.51
2023-02-28T03:19:18.399Z,4.40
2023-02-28T03:21:58.714Z,4.22
2023-02-28T03:24:44.254Z,4.28
2023-02-28T03:27:22.135Z,4.09
2023-02-28T03:30:02.823Z,4.41
2023-02-28T03:32:55.831Z,4.45
2023-02-28T03:35:26.036Z,4.52
2023-02-28T03:38:01.611Z,4.50
2023-02-28T03:40:33.869Z,4.38
2023-02-28T03:43:10.680Z,4.09
2023-02-28T03:45:40.557Z,4.45
2023-02-28T03:48:18.076Z,4.32
2023-02-28T03:50:48.585Z,4.42
2023-02-28T03:53:26.495Z,4.32
2023-02-28T03:56:08.720Z,4.43
2023-02-28T03:58:55.284Z,4.40
2023-02-28T04:01:45.962Z,4.41
2023-02-28T04:04:13.919Z,4.20
2023-02-28T04:06:41.226Z,4.39
2023-02-28T04:11:42.698Z,4.31
2023-02-28T04:14:10.856Z,4.45
2023-02-28T04:16:41.836Z,4.36
2023-02-28T04:19:09.841Z,4.48
2023-02-28T04:21:40.065Z,4.51
2023-02-28T04:24:07.833Z,4.62
2023-02-28T04:26:37.184Z,4.76
2023-02-28T04:29:06.131Z,4.88
2023-02-28T04:31:33.239Z,4.91
2023-02-28T04:34:00.560Z,4.85
2023-02-28T04:36:27.205Z,4.74
2023-02-28T04:38:54.697Z,4.87
2023-02-28T04:41:22.200Z,4.87
2023-02-28T04:43:48.712Z,4.80
2023-02-28T04:46:15.343Z,4.81
2023-02-28T04:48:41.977Z,4.85
2023-02-28T04:51:12.541Z,4.35
2023-02-28T04:53:41.203Z,4.99
2023-02-28T04:56:08.606Z,5.12
2023-02-28T04:58:35.709Z,5.11
2023-02-28T05:01:15.870Z,5.09
2023-02-28T05:03:43.662Z,5.26
2023-02-28T05:06:12.203Z,4.96
2023-02-28T05:08:38.927Z,5.27
2023-02-28T05:11:09.482Z,5.27
2023-02-28T05:13:36.696Z,5.17
2023-02-28T05:16:03.244Z,4.93
2023-02-28T05:18:29.893Z,5.17
2023-02-28T05:20:56.543Z,5.15
2023-02-28T05:23:24.381Z,5.33
2023-02-28T05:25:50.956Z,5.36
2023-02-28T05:28:17.502Z,5.07
2023-02-28T05:30:44.018Z,5.29
2023-02-28T05:33:12.474Z,5.08
2023-02-28T05:35:43.726Z,4.57
2023-02-28T05:38:10.305Z,5.24
2023-02-28T05:40:40.031Z,5.32
2023-02-28T05:43:06.647Z,5.04
2023-02-28T05:45:33.276Z,5.24
2023-02-28T05:47:59.847Z,5.29
2023-02-28T05:50:26.411Z,4.97
2023-02-28T05:52:53.359Z,4.93
2023-02-28T05:55:19.945Z,4.91
2023-02-28T05:57:46.495Z,5.39
2023-02-28T06:00:15.885Z,5.50
2023-02-28T06:02:42.426Z,5.53
2023-02-28T06:05:15.469Z,5.50
2023-02-28T06:07:42.012Z,5.32
2023-02-28T06:10:09.399Z,4.95
2023-02-28T06:12:35.927Z,5.32
2023-02-28T06:15:02.480Z,5.44
2023-02-28T06:17:29.057Z,4.67
2023-02-28T06:19:55.630Z,4.52
2023-02-28T06:22:22.341Z,4.94
2023-02-28T06:24:48.904Z,5.35
2023-02-28T06:27:15.545Z,5.29
2023-02-28T06:29:42.108Z,5.15
2023-02-28T06:32:08.741Z,4.88
2023-02-28T06:34:35.369Z,4.59
2023-02-28T06:37:03.157Z,5.38
2023-02-28T06:39:30.884Z,5.35
2023-02-28T06:41:58.579Z,4.95
2023-02-28T06:44:25.810Z,4.63
2023-02-28T06:46:52.395Z,5.17
2023-02-28T06:49:19.178Z,5.29
2023-02-28T06:51:46.313Z,4.98
2023-02-28T06:54:14.165Z,5.21
2023-02-28T06:56:41.124Z,4.08
2023-02-28T06:59:07.648Z,5.10
2023-02-28T07:01:34.316Z,5.39
2023-02-28T07:04:01.720Z,5.34
2023-02-28T07:06:28.844Z,5.06
2023-02-28T07:08:55.925Z,5.40
2023-02-28T07:11:23.977Z,4.89
2023-02-28T07:13:51.869Z,5.31
2023-02-28T07:16:18.766Z,5.33
2023-02-28T07:18:45.566Z,5.77
2023-02-28T07:21:12.274Z,5.86
2023-02-28T07:23:40.042Z,5.73
2023-02-28T07:26:08.008Z,5.67
2023-02-28T07:28:34.606Z,5.42
2023-02-28T07:31:08.366Z,6.00
2023-02-28T07:33:35.077Z,5.87
2023-02-28T07:36:06.935Z,5.91
2023-02-28T07:38:38.163Z,6.08
2023-02-28T07:41:05.286Z,6.03
2023-02-28T07:43:33.067Z,5.46
2023-02-28T07:46:10.673Z,5.66
2023-02-28T07:48:37.698Z,5.64
2023-02-28T07:51:04.498Z,5.45
2023-02-28T07:53:31.479Z,5.95
2023-02-28T07:55:59.528Z,6.41
2023-02-28T07:58:27.326Z,6.67
2023-02-28T08:00:54.289Z,6.53
2023-02-28T08:03:22.495Z,6.65
2023-02-28T08:05:49.497Z,6.54
2023-02-28T08:08:17.644Z,6.25
2023-02-28T08:10:44.703Z,6.69
2023-02-28T08:13:11.257Z,6.78
2023-02-28T08:15:37.768Z,6.93
2023-02-28T08:18:04.407Z,6.87
2023-02-28T08:20:31.675Z,6.83
2023-02-28T08:22:58.484Z,6.69
2023-02-28T08:25:25.151Z,6.41
2023-02-28T08:27:53.231Z,5.99
2023-02-28T08:30:19.967Z,6.92
2023-02-28T08:32:46.721Z,7.02
2023-02-28T08:35:13.468Z,7.00
2023-02-28T08:37:40.104Z,7.26
2023-02-28T08:40:07.441Z,7.14
2023-02-28T08:42:34.083Z,7.04
2023-02-28T08:45:00.589Z,7.09
2023-02-28T08:47:27.472Z,7.42
2023-02-28T08:49:54.036Z,7.25
2023-02-28T08:52:20.530Z,7.57
2023-02-28T08:54:47.730Z,7.92
2023-02-28T08:57:14.516Z,7.87
2023-02-28T08:59:41.122Z,7.61
2023-02-28T09:02:09.835Z,7.87
2023-02-28T09:04:36.617Z,8.09
2023-02-28T09:07:03.175Z,8.12
2023-02-28T09:09:29.811Z,8.08
2023-02-28T09:11:57.423Z,7.75
2023-02-28T09:14:24.344Z,8.28
2023-02-28T09:16:51.366Z,7.89
2023-02-28T09:19:17.999Z,8.10
2023-02-28T09:21:44.543Z,7.83
2023-02-28T09:24:13.103Z,7.61
2023-02-28T09:26:43.151Z,8.09
2023-02-28T09:29:15.575Z,8.17
2023-02-28T09:31:42.160Z,7.65
2023-02-28T09:34:08.812Z,6.66
2023-02-28T09:36:45.093Z,7.32
2023-02-28T09:39:16.211Z,7.60
2023-02-28T09:41:51.178Z,7.69
2023-02-28T09:44:44.816Z,7.93
2023-02-28T09:47:14.400Z,8.38
2023-02-28T09:49:47.898Z,8.43
2023-02-28T09:52:26.686Z,7.89
2023-02-28T09:54:53.269Z,7.63
2023-02-28T09:57:40.303Z,7.88
2023-02-28T10:00:09.422Z,8.45
2023-02-28T10:03:25.511Z,8.17
2023-02-28T10:06:16.984Z,7.73
2023-02-28T10:09:02.422Z,7.78
2023-02-28T10:11:32.399Z,7.94
2023-02-28T10:14:06.738Z,8.33
2023-02-28T10:16:38.085Z,8.34
2023-02-28T10:19:11.134Z,8.12
2023-02-28T10:21:48.518Z,8.40
2023-02-28T10:24:20.003Z,8.95
2023-02-28T10:26:48.958Z,8.65
2023-02-28T10:29:16.555Z,8.93
2023-02-28T10:31:43.709Z,8.88
2023-02-28T10:34:13.462Z,9.04
2023-02-28T10:36:40.800Z,8.93
2023-02-28T10:39:42.738Z,8.95
2023-02-28T10:42:30.377Z,8.81
2023-02-28T10:45:27.440Z,7.51
2023-02-28T10:47:58.013Z,9.05
2023-02-28T10:50:45.489Z,9.64
2023-02-28T10:53:27.034Z,9.66
2023-02-28T10:56:10.004Z,9.67
2023-02-28T10:59:02.454Z,10.01
2023-02-28T11:01:47.135Z,9.72
2023-02-28T11:04:33.509Z,9.63
2023-02-28T11:07:23.135Z,9.98
2023-02-28T11:09:53.713Z,10.46
2023-02-28T11:12:26.733Z,10.89
2023-02-28T11:14:57.784Z,11.27
2023-02-28T11:17:27.705Z,11.47
2023-02-28T11:19:58.108Z,11.44
2023-02-28T11:22:32.032Z,12.43
2023-02-28T11:25:00.329Z,12.72
2023-02-28T11:27:47.855Z,12.98
2023-02-28T11:30:28.609Z,12.75
2023-02-28T11:32:55.174Z,12.78
2023-02-28T11:35:24.660Z,12.21
2023-02-28T11:37:51.524Z,12.46
2023-02-28T11:40:56.460Z,10.98
2023-02-28T11:43:44.380Z,11.57
2023-02-28T11:46:51.447Z,9.64
2023-02-28T11:49:46.554Z,10.74
2023-02-28T11:52:47.546Z,11.91
2023-02-28T11:55:53.413Z,12.07
2023-02-28T11:58:51.668Z,12.13
2023-02-28T12:01:32.929Z,11.91
2023-02-28T12:04:22.560Z,11.77
2023-02-28T12:06:58.479Z,11.69
2023-02-28T12:09:52.956Z,11.97
2023-02-28T12:12:28.393Z,11.53
2023-02-28T12:14:54.883Z,11.19
2023-02-28T12:17:27.092Z,11.30
2023-02-28T12:19:56.381Z,11.83
2023-02-28T12:22:33.108Z,11.93
2023-02-28T12:25:14.961Z,11.61
2023-02-28T12:27:46.793Z,11.59
2023-02-28T12:30:14.517Z,12.85
2023-02-28T12:32:49.560Z,15.11
2023-02-28T12:35:22.852Z,16.39
2023-02-28T12:38:18.641Z,17.43
2023-02-28T12:41:10.528Z,16.20
2023-02-28T12:43:45.560Z,16.75
2023-02-28T12:46:18.984Z,18.04
2023-02-28T12:48:57.959Z,18.86
2023-02-28T12:51:27.810Z,19.84
2023-02-28T12:54:04.595Z,20.70
2023-02-28T12:56:43.300Z,21.18
2023-02-28T12:59:14.433Z,21.22
2023-02-28T13:02:11.610Z,21.41
2023-02-28T13:04:50.151Z,21.00
2023-02-28T13:07:35.591Z,19.30
2023-02-28T13:10:05.440Z,17.72
2023-02-28T13:12:31.984Z,16.63
2023-02-28T13:15:22.878Z,16.73
2023-02-28T13:17:52.384Z,16.75
2023-02-28T13:20:21.954Z,16.85
2023-02-28T13:22:51.564Z,15.99
2023-02-28T13:25:24.267Z,14.73
2023-02-28T13:28:01.956Z,13.32
2023-02-28T13:30:53.626Z,14.69
2023-02-28T13:33:25.429Z,14.32
2023-02-28T13:36:14.174Z,14.25
2023-02-28T13:39:01.358Z,13.74
2023-02-28T13:41:37.124Z,13.77
2023-02-28T13:44:06.917Z,13.75
2023-02-28T13:46:36.870Z,13.11
2023-02-28T13:49:34.827Z,13.71
2023-02-28T13:52:07.473Z,12.66
2023-02-28T13:55:17.085Z,13.03
2023-02-28T13:57:59.009Z,13.00
2023-02-28T14:00:41.356Z,13.10
2023-02-28T14:03:20.285Z,12.91
2023-02-28T14:05:47.098Z,13.10
2023-02-28T14:08:19.159Z,12.78
2023-02-28T14:10:49.138Z,13.31
2023-02-28T14:13:46.056Z,13.78
2023-02-28T14:16:21.185Z,13.97
2023-02-28T14:19:02.845Z,14.17
2023-02-28T14:21:35.031Z,14.24
2023-02-28T14:24:14.280Z,14.16
2023-02-28T14:27:09.041Z,14.65
2023-02-28T14:29:50.785Z,14.57
2023-02-28T14:32:33.565Z,14.01
2023-02-28T14:35:26.154Z,14.26
2023-02-28T14:37:55.214Z,14.97
2023-02-28T14:40:34.446Z,16.09
2023-02-28T14:43:05.112Z,15.96
2023-02-28T14:45:34.704Z,15.84
2023-02-28T14:48:03.545Z,17.23
2023-02-28T14:50:37.814Z,17.38
2023-02-28T14:53:16.453Z,17.47
2023-02-28T14:55:47.063Z,17.09
2023-02-28T14:58:40.999Z,16.47
2023-02-28T15:01:11.304Z,16.39
2023-02-28T15:03:40.255Z,16.70
2023-02-28T15:06:14.279Z,16.07
2023-02-28T15:08:40.864Z,15.61
2023-02-28T15:11:23.114Z,16.44
2023-02-28T15:13:56.392Z,16.19
2023-02-28T15:16:26.603Z,15.72
2023-02-28T15:18:58.342Z,14.46
2023-02-28T15:21:29.965Z,14.76
2023-02-28T15:24:04.946Z,14.11
2023-02-28T15:26:35.463Z,14.67
2023-02-28T15:29:16.335Z,14.95
2023-02-28T15:31:57.539Z,14.66
2023-02-28T15:34:43.388Z,14.02
2023-02-28T15:37:32.209Z,13.96
2023-02-28T15:40:11.295Z,13.87
2023-02-28T15:42:37.857Z,14.16
2023-02-28T15:45:05.165Z,14.33
2023-02-28T15:47:32.213Z,13.76
2023-02-28T15:50:03.015Z,12.48
2023-02-28T15:52:34.375Z,12.47
2023-02-28T15:55:18.640Z,12.44
2023-02-28T15:57:46.957Z,12.08
2023-02-28T16:00:16.834Z,11.09
2023-02-28T16:02:45.460Z,11.43
2023-02-28T16:05:12.079Z,10.96
2023-02-28T16:07:40.539Z,11.31
2023-02-28T16:10:10.000Z,11.18
2023-02-28T16:12:38.537Z,11.29
2023-02-28T16:15:29.824Z,11.12
2023-02-28T16:17:57.916Z,10.86
2023-02-28T16:20:27.612Z,10.76
2023-02-28T16:22:55.451Z,11.01
2023-02-28T16:25:27.703Z,10.82
2023-02-28T16:27:55.355Z,10.88
2023-02-28T16:30:25.296Z,10.72
2023-02-28T16:32:53.373Z,10.68
2023-02-28T16:35:20.763Z,10.74
2023-02-28T16:37:47.340Z,10.74
2023-02-28T16:40:21.822Z,10.75
2023-02-28T16:42:51.600Z,10.71
2023-02-28T16:45:23.883Z,10.64
2023-02-28T16:47:50.566Z,10.69
2023-02-28T16:50:29.005Z,10.57
2023-02-28T16:52:55.941Z,10.55
2023-02-28T16:55:24.585Z,10.59
2023-02-28T16:57:54.269Z,10.55
2023-02-28T17:00:21.075Z,10.52
2023-02-28T17:02:47.885Z,10.47
2023-02-28T17:05:16.092Z,10.33
2023-02-28T17:07:43.318Z,10.31
2023-02-28T17:10:30.070Z,10.22
2023-02-28T17:13:06.127Z,10.13
2023-02-28T17:15:41.670Z,10.10
2023-02-28T17:18:19.771Z,10.07
2023-02-28T17:20:47.235Z,9.99
2023-02-28T17:23:13.878Z,9.90
2023-02-28T17:25:40.436Z,9.87
2023-02-28T17:28:07.005Z,9.92
2023-02-28T17:30:35.365Z,9.84
2023-02-28T17:33:02.148Z,9.78
2023-02-28T17:35:29.260Z,9.76
2023-02-28T17:37:55.941Z,9.71
2023-02-28T17:40:24.255Z,9.62
2023-02-28T17:42:53.099Z,9.59
2023-02-28T17:45:20.296Z,9.49
2023-02-28T17:47:49.424Z,9.50
2023-02-28T17:50:18.910Z,9.38
2023-02-28T17:52:45.541Z,9.31
2023-02-28T17:55:12.776Z,9.29
2023-02-28T17:57:39.826Z,9.27
2023-02-28T18:00:07.697Z,9.28
2023-02-28T18:02:38.082Z,9.20
2023-02-28T18:05:05.391Z,9.17
2023-02-28T18:07:32.142Z,9.30
2023-02-28T18:09:58.685Z,9.34
2023-02-28T18:12:25.214Z,9.40
2023-02-28T18:14:51.783Z,9.45
2023-02-28T18:17:18.282Z,9.28
2023-02-28T18:19:44.787Z,9.34
2023-02-28T18:22:11.623Z,9.43
2023-02-28T18:24:38.146Z,9.45
2023-02-28T18:27:04.687Z,9.48
2023-02-28T18:29:32.567Z,9.37
2023-02-28T18:31:59.549Z,9.35
2023-02-28T18:34:26.198Z,9.41
2023-02-28T18:36:53.386Z,9.42
2023-02-28T18:39:20.193Z,9.42
2023-02-28T18:41:47.001Z,9.48
2023-02-28T18:44:19.812Z,9.37
2023-02-28T18:46:47.546Z,9.34
2023-02-28T18:49:14.260Z,9.42
2023-02-28T18:51:44.981Z,9.32
2023-02-28T18:54:15.926Z,9.29
2023-02-28T18:56:42.682Z,9.29
2023-02-28T18:59:09.405Z,9.32
2023-02-28T19:01:36.340Z,9.16
2023-02-28T19:04:04.248Z,9.27
2023-02-28T19:06:32.354Z,9.14
2023-02-28T19:09:00.741Z,9.24
2023-02-28T19:11:28.098Z,9.22
2023-02-28T19:13:54.865Z,9.39
2023-02-28T19:16:22.372Z,9.38
2023-02-28T19:18:49.083Z,9.41
2023-02-28T19:21:17.332Z,9.35
2023-02-28T19:23:44.356Z,9.38
2023-02-28T19:26:16.369Z,9.45
2023-02-28T19:28:43.726Z,9.36
2023-02-28T19:31:22.561Z,9.32
2023-02-28T19:33:50.679Z,9.45
2023-02-28T19:36:17.300Z,9.34
2023-02-28T19:38:46.902Z,9.42
2023-02-28T19:41:15.316Z,9.32
2023-02-28T19:43:41.959Z,9.33
2023-02-28T19:46:10.348Z,9.30
2023-02-28T19:48:37.160Z,9.32
2023-02-28T19:51:07.041Z,9.34
2023-02-28T19:53:35.345Z,9.47
2023-02-28T19:56:04.086Z,9.42
2023-02-28T19:58:31.298Z,9.23
2023-02-28T20:00:58.106Z,9.41
2023-02-28T20:03:24.723Z,9.52
2023-02-28T20:06:02.899Z,9.61
2023-02-28T20:08:29.775Z,9.61
2023-02-28T20:11:02.517Z,9.66
2023-02-28T20:13:29.064Z,9.15
2023-02-28T20:15:58.146Z,9.69
2023-02-28T20:18:24.656Z,9.67
2023-02-28T20:20:51.310Z,9.72
2023-02-28T20:23:17.832Z,9.46
2023-02-28T20:25:44.379Z,9.72
2023-02-28T20:28:10.925Z,9.72
2023-02-28T20:30:39.546Z,9.80
2023-02-28T20:33:06.148Z,9.76
2023-02-28T20:35:33.656Z,9.60
2023-02-28T20:38:00.219Z,9.53
2023-02-28T20:40:26.732Z,9.30
2023-02-28T20:42:55.029Z,9.48
2023-02-28T20:45:21.654Z,9.43
2023-02-28T20:47:48.472Z,9.39
2023-02-28T20:50:17.035Z,9.45
2023-02-28T20:52:46.959Z,9.53
2023-02-28T20:55:13.824Z,9.41
2023-02-28T20:57:40.387Z,9.42
2023-02-28T21:00:19.262Z,9.43
2023-02-28T21:02:45.982Z,9.59
2023-02-28T21:05:12.546Z,9.15
2023-02-28T21:07:39.181Z,9.15
2023-02-28T21:10:07.479Z,9.19
2023-02-28T21:12:35.245Z,8.96
2023-02-28T21:15:01.760Z,9.19
2023-02-28T21:17:29.111Z,9.23
2023-02-28T21:19:55.636Z,9.44
2023-02-28T21:22:22.172Z,9.41
2023-02-28T21:24:48.689Z,9.18
2023-02-28T21:27:15.614Z,9.50
2023-02-28T21:29:42.178Z,9.43
2023-02-28T21:32:08.815Z,9.11
2023-02-28T21:34:35.375Z,9.43
2023-02-28T21:37:02.360Z,9.45
2023-02-28T21:39:30.031Z,9.30
2023-02-28T21:42:02.080Z,9.35
2023-02-28T21:44:29.888Z,9.57
2023-02-28T21:47:00.979Z,9.50
2023-02-28T21:49:28.466Z,9.55
2023-02-28T21:51:55.055Z,8.73
2023-02-28T21:54:21.602Z,8.90
2023-02-28T21:56:50.516Z,8.74
2023-02-28T21:59:17.341Z,9.12
2023-02-28T22:01:44.543Z,9.26
2023-02-28T22:04:20.913Z,9.50
2023-02-28T22:06:50.179Z,9.56
2023-02-28T22:09:16.888Z,9.56
2023-02-28T22:11:43.479Z,9.45
2023-02-28T22:14:12.409Z,9.35
2023-02-28T22:16:50.745Z,9.09
2023-02-28T22:19:19.698Z,9.21
2023-02-28T22:21:47.325Z,9.29
2023-02-28T22:24:14.644Z,9.12
2023-02-28T22:26:41.390Z,9.41
2023-02-28T22:29:07.948Z,9.30
2023-02-28T22:31:35.863Z,9.35
2023-02-28T22:34:08.640Z,9.28
2023-02-28T22:36:35.671Z,9.04
2023-02-28T22:39:02.824Z,9.14
2023-02-28T22:41:29.904Z,9.26
2023-02-28T22:43:59.773Z,9.23
2023-02-28T22:46:28.022Z,8.88
2023-02-28T22:48:54.808Z,9.13
2023-02-28T22:51:25.279Z,9.28
2023-02-28T22:53:53.522Z,9.34
2023-02-28T22:56:22.783Z,9.33
2023-02-28T22:58:54.361Z,9.39
2023-02-28T23:01:22.601Z,9.30
2023-02-28T23:03:49.773Z,9.30
2023-02-28T23:06:33.002Z,9.51
2023-02-28T23:09:04.671Z,8.83
2023-02-28T23:11:38.129Z,9.22
2023-02-28T23:14:05.309Z,9.43
2023-02-28T23:16:39.580Z,8.90
2023-02-28T23:19:13.760Z,9.35
2023-02-28T23:21:40.594Z,9.37
2023-02-28T23:24:11.853Z,9.47
2023-02-28T23:26:47.383Z,9.27
2023-02-28T23:29:15.523Z,9.15
2023-02-28T23:31:42.182Z,9.43
2023-02-28T23:34:09.254Z,9.25
2023-02-28T23:36:37.050Z,9.30
2023-02-28T23:39:03.838Z,9.37
2023-02-28T23:41:30.383Z,9.06
2023-02-28T23:43:57.016Z,9.10
2023-02-28T23:46:23.775Z,9.20
2023-02-28T23:48:50.303Z,9.07
2023-02-28T23:51:19.229Z,8.93
2023-02-28T23:53:50.214Z,9.25
2023-02-28T23:56:20.667Z,8.65
2023-02-28T23:58:48.173Z,9.01
